createdAt,value
2019-04-06T06:34:18.439Z,52.90
2019-04-06T06:36:48.775Z,52.03
2019-04-06T06:39:17.405Z,47.75
2019-04-06T06:41:45.996Z,40.78
2019-04-06T06:44:14.746Z,42.35
2019-04-06T06:46:43.439Z,38.38
2019-04-06T06:49:12.390Z,48.05
2019-04-06T06:52:00.342Z,43.15
2019-04-06T06:54:28.876Z,48.78
2019-04-06T06:56:57.542Z,49.00
2019-04-06T06:59:28.399Z,48.52
2019-04-06T07:01:56.983Z,46.50
2019-04-06T07:04:25.562Z,47.62
2019-04-06T07:06:54.385Z,47.45
2019-04-06T07:09:23.047Z,47.00
2019-04-06T07:11:51.603Z,46.58
2019-04-06T07:14:20.167Z,51.00
2019-04-06T07:16:48.843Z,49.55
2019-04-06T07:19:17.358Z,40.55
2019-04-06T07:21:46.290Z,33.85
2019-04-06T07:24:15.002Z,32.73
2019-04-06T07:26:43.762Z,34.85
2019-04-06T07:29:12.650Z,34.18
2019-04-06T07:31:41.747Z,32.48
2019-04-06T07:34:10.295Z,32.35
2019-04-06T07:36:39.219Z,34.03
2019-04-06T07:39:09.486Z,33.33
2019-04-06T07:41:38.302Z,34.35
2019-04-06T07:44:06.923Z,33.35
2019-04-06T07:46:35.479Z,34.43
2019-04-06T07:49:09.304Z,33.40
2019-04-06T07:51:34.711Z,32.80
2019-04-06T07:54:03.326Z,32.93
2019-04-06T07:56:32.203Z,32.03
2019-04-06T07:59:00.727Z,32.88
2019-04-06T08:01:29.660Z,30.68
2019-04-06T08:03:58.308Z,30.77
2019-04-06T08:06:27.037Z,34.05
2019-04-06T08:08:55.725Z,31.73
2019-04-06T08:11:24.423Z,31.02
2019-04-06T08:13:52.938Z,31.52
2019-04-06T08:16:22.609Z,32.48
2019-04-06T08:18:51.158Z,31.20
2019-04-06T08:21:19.789Z,32.08
2019-04-06T08:23:48.318Z,30.88
2019-04-06T08:26:16.866Z,32.60
2019-04-06T08:28:45.359Z,32.03
2019-04-06T08:31:13.949Z,30.97
2019-04-06T08:33:42.491Z,31.15
2019-04-06T08:36:11.143Z,29.50
2019-04-06T08:38:39.724Z,31.45
2019-04-06T08:41:08.273Z,29.57
2019-04-06T08:43:36.856Z,30.37
2019-04-06T08:46:05.890Z,29.75
2019-04-06T08:48:34.460Z,31.12
2019-04-06T08:51:03.034Z,31.42
2019-04-06T08:53:31.592Z,29.92
2019-04-06T08:56:00.421Z,31.23
2019-04-06T08:58:28.967Z,30.97
2019-04-06T09:00:57.525Z,30.68
2019-04-06T09:03:26.374Z,31.80
2019-04-06T09:05:54.919Z,30.80
2019-04-06T09:08:23.504Z,30.32
2019-04-06T09:10:52.042Z,30.23
2019-04-06T09:13:20.603Z,28.95
2019-04-06T09:15:49.538Z,30.12
2019-04-06T09:18:18.038Z,29.92
2019-04-06T09:20:47.369Z,30.52
2019-04-06T09:23:15.923Z,30.12
2019-04-06T09:25:44.755Z,29.45
2019-04-06T09:28:13.244Z,29.48
2019-04-06T09:30:42.038Z,28.47
2019-04-06T09:33:10.999Z,31.27
2019-04-06T09:35:39.551Z,29.65
2019-04-06T09:38:10.116Z,28.73
2019-04-06T09:40:38.665Z,28.20
2019-04-06T09:43:07.519Z,28.83
2019-04-06T09:45:53.883Z,28.02
2019-04-06T09:48:24.072Z,28.47
2019-04-06T09:54:06.421Z,25.90
2019-04-06T09:56:36.170Z,24.47
2019-04-06T10:02:05.463Z,26.25
2019-04-06T10:04:52.023Z,23.85
2019-04-06T10:07:28.332Z,24.02
2019-04-06T10:09:58.618Z,25.60
2019-04-06T10:12:46.941Z,23.55
2019-04-06T10:15:17.577Z,23.80
2019-04-06T10:18:04.126Z,23.20
2019-04-06T10:20:49.510Z,23.55
2019-04-06T10:23:36.415Z,23.75
2019-04-06T10:26:19.072Z,21.02
2019-04-06T10:28:55.421Z,20.95
2019-04-06T10:31:34.834Z,22.97
2019-04-06T10:34:08.133Z,21.45
2019-04-06T10:36:54.625Z,22.30
2019-04-06T10:39:24.933Z,21.17
2019-04-06T10:41:55.172Z,17.45
2019-04-06T10:44:31.179Z,17.15
2019-04-06T10:47:07.476Z,16.70
2019-04-06T10:49:40.128Z,16.73
2019-04-06T10:52:26.290Z,15.65
2019-04-06T10:58:03.159Z,18.70
2019-04-06T11:00:49.112Z,17.30
2019-04-06T11:03:34.691Z,16.45
2019-04-06T11:06:14.065Z,12.95
2019-04-06T11:08:49.850Z,12.37
2019-04-06T11:11:31.991Z,26.45
2019-04-06T11:14:02.248Z,24.67
2019-04-06T11:16:35.214Z,13.72
2019-04-06T11:19:08.459Z,20.97
2019-04-06T11:21:41.443Z,14.80
2019-04-06T11:24:17.138Z,18.10
2019-04-06T11:29:51.738Z,12.37
2019-04-06T11:32:31.234Z,12.33
2019-04-06T11:35:01.467Z,12.65
2019-04-06T11:37:50.218Z,11.10
2019-04-06T11:40:36.454Z,11.30
2019-04-06T11:43:06.707Z,11.88
2019-04-06T11:45:53.752Z,11.57
2019-04-06T11:48:40.502Z,11.43
2019-04-06T11:51:16.948Z,10.70
2019-04-06T11:53:47.546Z,11.75
2019-04-06T11:56:33.983Z,11.18
2019-04-06T11:59:20.759Z,10.80
2019-04-06T12:04:33.251Z,11.60
2019-04-06T12:07:09.098Z,11.40
2019-04-06T12:09:39.290Z,11.00
2019-04-06T12:12:09.627Z,10.32
2019-04-06T12:20:11.706Z,11.38
2019-04-06T12:22:50.083Z,11.38
2019-04-06T12:25:22.560Z,11.55
2019-04-06T12:30:47.447Z,13.40
2019-04-06T12:33:33.646Z,12.60
2019-04-06T12:36:09.919Z,12.73
2019-04-06T12:38:55.147Z,13.00
2019-04-06T12:41:25.369Z,11.55
2019-04-06T12:44:13.326Z,16.97
2019-04-06T12:46:49.659Z,12.03
2019-04-06T12:49:32.052Z,11.40
2019-04-06T12:52:14.251Z,11.38
2019-04-06T12:55:01.562Z,10.98
2019-04-06T13:00:27.100Z,11.80
2019-04-06T13:05:50.372Z,12.25
2019-04-06T13:08:32.902Z,11.38
2019-04-06T13:11:03.103Z,11.55
2019-04-06T13:13:49.284Z,10.80
2019-04-06T13:16:19.832Z,10.38
2019-04-06T13:18:50.030Z,10.82
2019-04-06T13:24:04.626Z,10.18
2019-04-06T13:26:40.549Z,9.93
2019-04-06T13:29:29.218Z,8.35
2019-04-06T13:31:59.456Z,9.03
2019-04-06T13:34:32.562Z,8.80
2019-04-06T13:37:02.817Z,8.38
2019-04-06T13:39:42.076Z,7.80
2019-04-06T13:42:15.215Z,7.10
2019-04-06T13:44:45.528Z,7.45
2019-04-06T13:47:30.773Z,7.67
2019-04-06T13:50:06.969Z,6.83
2019-04-06T13:52:43.005Z,7.65
2019-04-06T13:55:13.426Z,6.65
2019-04-06T13:58:00.031Z,7.05
2019-04-06T14:00:39.159Z,7.62
2019-04-06T14:03:25.623Z,6.95
2019-04-06T14:06:01.679Z,7.12
2019-04-06T14:08:40.766Z,8.05
2019-04-06T14:11:27.549Z,8.33
2019-04-06T14:14:04.229Z,6.75
2019-04-06T14:19:32.477Z,7.42
2019-04-06T14:22:02.098Z,7.10
2019-04-06T14:24:44.754Z,7.00
2019-04-06T14:27:30.322Z,7.33
2019-04-06T14:30:03.823Z,7.72
2019-04-06T14:32:43.247Z,7.28
2019-04-06T14:35:30.430Z,7.42
2019-04-06T14:38:17.494Z,7.50
2019-04-06T14:41:04.714Z,7.55
2019-04-06T14:43:41.153Z,7.40
2019-04-06T14:52:08.707Z,7.47
2019-04-06T14:54:55.615Z,7.83
2019-04-06T14:57:42.366Z,7.83
2019-04-06T15:00:39.529Z,8.08
2019-04-06T15:03:15.883Z,7.58
2019-04-06T15:05:55.146Z,7.85
2019-04-06T15:08:37.653Z,7.45
2019-04-06T15:11:16.499Z,7.20
2019-04-06T15:13:49.850Z,8.00
2019-04-06T15:19:33.435Z,6.65
2019-04-06T15:22:19.782Z,7.12
2019-04-06T15:24:52.678Z,7.37
2019-04-06T15:27:22.809Z,6.50
2019-04-06T15:29:53.136Z,6.40
2019-04-06T15:32:41.311Z,6.62
2019-04-06T15:40:56.892Z,7.70
2019-04-06T15:46:25.467Z,6.80
2019-04-06T15:49:01.367Z,6.47
2019-04-06T15:51:37.399Z,6.67
2019-04-06T15:54:07.664Z,7.00
2019-04-06T15:56:38.178Z,6.50
2019-04-06T16:02:00.214Z,7.72
2019-04-06T16:13:27.990Z,6.97
2019-04-06T16:16:16.203Z,7.25
2019-04-06T16:18:55.434Z,7.30
2019-04-06T16:21:25.659Z,7.65
2019-04-06T16:24:03.018Z,7.35
2019-04-06T16:26:45.614Z,7.37
2019-04-06T16:29:37.940Z,6.87
2019-04-06T16:32:12.457Z,7.33
2019-04-06T16:34:41.232Z,7.00
2019-04-06T16:37:16.995Z,6.75
2019-04-06T16:39:47.222Z,6.80
2019-04-06T16:42:22.207Z,7.28
2019-04-06T16:44:52.400Z,6.90
2019-04-06T16:47:22.603Z,7.33
2019-04-06T16:50:05.075Z,7.53
2019-04-06T16:52:35.505Z,7.15
2019-04-06T16:57:51.887Z,7.45
2019-04-06T17:00:38.838Z,7.08
2019-04-06T17:03:25.351Z,6.70
2019-04-06T17:06:01.515Z,6.58
2019-04-06T17:08:31.696Z,7.30
2019-04-06T17:11:02.386Z,7.30
2019-04-06T17:13:49.634Z,9.30
2019-04-06T17:16:36.689Z,6.95
2019-04-06T17:19:19.467Z,7.15
2019-04-06T17:21:58.778Z,6.53
2019-04-06T17:24:32.263Z,7.00
2019-04-06T17:27:11.646Z,6.45
2019-04-06T17:29:57.124Z,6.33
2019-04-06T17:32:38.081Z,7.20
2019-04-06T17:35:12.039Z,7.58
2019-04-06T17:37:57.681Z,8.95
2019-04-06T17:43:25.274Z,6.33
2019-04-06T17:45:58.223Z,6.60
2019-04-06T17:48:28.478Z,6.87
2019-04-06T17:51:16.095Z,8.25
2019-04-06T17:54:02.908Z,7.40
2019-04-06T17:56:48.162Z,7.75
2019-04-06T18:02:50.012Z,8.53
2019-04-06T18:05:36.074Z,7.40
2019-04-06T18:08:06.884Z,9.33
2019-04-06T18:13:38.312Z,8.08
2019-04-06T18:16:07.093Z,8.25
2019-04-06T18:18:35.716Z,8.13
2019-04-06T18:21:04.423Z,8.18
2019-04-06T18:23:33.662Z,8.15
2019-04-06T18:26:02.246Z,9.33
2019-04-06T18:28:31.179Z,8.98
2019-04-06T18:31:01.942Z,10.53
2019-04-06T18:33:31.095Z,10.53
2019-04-06T18:35:59.867Z,9.25
2019-04-06T18:38:37.599Z,8.68
2019-04-06T18:41:06.372Z,8.78
2019-04-06T18:43:34.903Z,10.15
2019-04-06T18:46:03.853Z,9.35
2019-04-06T18:48:32.880Z,9.00
2019-04-06T18:51:02.139Z,9.95
2019-04-06T18:53:32.104Z,9.50
2019-04-06T18:56:00.999Z,9.95
2019-04-06T18:58:31.456Z,10.60
2019-04-06T19:01:00.703Z,9.55
2019-04-06T19:03:29.888Z,9.85
2019-04-06T19:05:59.066Z,11.65
2019-04-06T19:08:31.007Z,11.40
2019-04-06T19:11:00.008Z,10.08
2019-04-06T19:13:29.609Z,10.18
2019-04-06T19:15:58.470Z,12.95
2019-04-06T19:18:46.722Z,10.98
2019-04-06T19:21:15.541Z,9.55
2019-04-06T19:23:44.668Z,8.98
2019-04-06T19:26:14.037Z,10.03
2019-04-06T19:28:43.371Z,9.28
2019-04-06T19:31:12.551Z,9.43
2019-04-06T19:33:43.283Z,9.78
2019-04-06T19:36:12.383Z,9.60
2019-04-06T19:38:41.411Z,8.95
2019-04-06T19:41:10.322Z,10.08
2019-04-06T19:43:39.119Z,11.28
2019-04-06T19:46:07.792Z,9.68
2019-04-06T19:48:36.751Z,10.13
2019-04-06T19:51:05.817Z,10.40
2019-04-06T19:53:34.782Z,10.80
2019-04-06T19:56:03.491Z,11.18
2019-04-06T19:58:32.345Z,13.20
2019-04-06T20:01:01.462Z,12.93
2019-04-06T20:03:35.987Z,15.95
2019-04-06T20:06:00.733Z,12.50
2019-04-06T20:08:29.578Z,11.60
2019-04-06T20:10:58.682Z,10.72
2019-04-06T20:13:28.757Z,10.50
2019-04-06T20:15:58.301Z,9.88
2019-04-06T20:18:26.882Z,12.10
2019-04-06T20:20:55.944Z,12.30
2019-04-06T20:23:24.697Z,11.45
2019-04-06T20:25:53.378Z,11.25
2019-04-06T20:28:22.256Z,11.30
2019-04-06T20:30:50.874Z,16.85
2019-04-06T20:33:20.503Z,13.60
2019-04-06T20:35:49.449Z,14.23
2019-04-06T20:38:19.848Z,13.68
2019-04-06T20:40:48.461Z,12.58
2019-04-06T20:43:17.516Z,12.40
2019-04-06T20:45:47.352Z,23.10
2019-04-06T20:48:16.780Z,36.80
2019-04-06T20:50:45.419Z,21.85
2019-04-06T20:53:14.579Z,17.30
2019-04-06T20:55:43.630Z,13.90
2019-04-06T20:58:12.426Z,14.93
2019-04-06T21:00:41.527Z,12.60
2019-04-06T21:03:10.800Z,11.85
2019-04-06T21:05:41.386Z,15.98
2019-04-06T21:08:29.710Z,15.43
2019-04-06T21:10:58.291Z,12.73
2019-04-06T21:13:26.824Z,13.10
2019-04-06T21:15:55.588Z,13.90
2019-04-06T21:18:26.666Z,17.48
2019-04-06T21:20:55.505Z,14.13
2019-04-06T21:23:24.550Z,18.52
2019-04-06T21:25:53.128Z,16.07
2019-04-06T21:28:21.771Z,14.93
2019-04-06T21:30:50.384Z,13.88
2019-04-06T21:33:21.313Z,13.45
2019-04-06T21:35:50.156Z,14.75
2019-04-06T21:38:19.245Z,13.45
2019-04-06T21:40:47.965Z,14.58
2019-04-06T21:43:17.292Z,15.38
2019-04-06T21:45:46.792Z,13.10
2019-04-06T21:48:16.029Z,13.28
2019-04-06T21:50:45.170Z,14.10
2019-04-06T21:53:13.891Z,12.47
2019-04-06T21:55:44.571Z,12.28
2019-04-06T21:58:13.134Z,13.13
2019-04-06T22:00:56.711Z,12.93
2019-04-06T22:03:25.949Z,13.20
2019-04-06T22:05:54.936Z,13.28
2019-04-06T22:08:23.520Z,13.88
2019-04-06T22:10:55.005Z,14.40
2019-04-06T22:13:24.168Z,13.28
2019-04-06T22:15:52.790Z,13.55
2019-04-06T22:18:22.061Z,12.25
2019-04-06T22:20:51.772Z,13.30
2019-04-06T22:23:23.348Z,13.40
2019-04-06T22:25:51.925Z,14.20
2019-04-06T22:28:28.121Z,14.68
2019-04-06T22:33:54.258Z,15.20
2019-04-06T22:36:27.698Z,15.18
2019-04-06T22:38:56.574Z,15.23
2019-04-06T22:41:26.255Z,16.07
2019-04-06T22:43:56.119Z,15.65
2019-04-06T22:46:25.171Z,17.02
2019-04-06T22:48:53.845Z,16.12
2019-04-06T22:51:37.953Z,17.20
2019-04-06T22:54:06.866Z,17.52
2019-04-06T22:56:35.517Z,17.85
2019-04-06T22:59:04.226Z,16.25
2019-04-06T23:01:37.371Z,16.95
2019-04-06T23:04:49.524Z,16.12
2019-04-06T23:10:42.134Z,16.48
2019-04-06T23:13:25.488Z,16.52
2019-04-06T23:15:54.294Z,15.80
2019-04-06T23:18:23.348Z,16.48
2019-04-06T23:20:52.895Z,15.35
2019-04-06T23:23:26.142Z,15.08
2019-04-06T23:26:10.115Z,17.12
2019-04-06T23:28:49.078Z,14.18
2019-04-06T23:31:38.617Z,16.32
2019-04-06T23:34:16.803Z,16.65
2019-04-06T23:39:57.213Z,17.00
